Airfield :
LOGIN :

Register | Disclaimer

   EN    FR    IT 

 










Legend :    VFR   Marginal VFR   IFR   Intensive IFR   Very Intensive IFR
Visi :
Ceiling :
>= 8 km
>= 3000ft
5 to 8 km
1000 to 3000 ft
1500m to 5 km
500 to 1000 ft
800 to 1500m
200 to 500 ft
< 800m
< 200 ft
Symbols :   Thunderstorms  Fog  Heavy snow  Heavy precipitations  Wind > 20 kt
SIGMETs :     Misc.  Thunderstorms  Icing  Turbulence  Mountain Waves  Volcanic Ashes







- Airport Elevation : 755 ft
- IATA code : DRS


EDDC - Dresden Klotzsche

CURRENT METAR :
  • 251950Z VRB02KT CAVOK 10/09 Q1012 NOSIG

EXPIRED METARs :
  • 251920Z 21004KT 9999 -SHRA SCT044CB BKN072 11/09 Q1012 NOSIG
  • 251850Z 23003KT 9999 FEW044 BKN086 10/09 Q1011 NOSIG
  • 251820Z VRB02KT CAVOK 11/09 Q1011 NOSIG
  • 251750Z 25003KT 210V290 9999 FEW038 BKN053 11/09 Q1011 NOSIG
  • 251720Z 29007KT 250V330 9999 -SHRA SCT033CB BKN060 11/09 Q1011 NOSIG

TAF TAF EDDC
Valid from the 25 at 18:00 until the 26 at 18:00 UTC


251700Z 2518/2618 26008KT 9999 SCT040
BECMG 2606/2609 26015G25KT
PROB30
TEMPO 2611/2615 SHRA BKN035CB
No reported NOTAMs for that airfield.



MET'MAP, your aeronautical weather chart ! - Copyright ORBIFLY December 2007 - Disclaimer

ORBIFLY MET'MAP TEAM :

Programming & Development : Alexandra Zaïnal
Concept & Development : Baudouin d'Aumeries
Co-Development & Prog : Marc-Olivier Méhu
Technical & hardware support : Manuel Goepfert

Contact : metmap@orbifly.com




SOURCES & CREDITS :

   NOAA